createdAt,value
2022-10-01T00:02:20.747Z,10.00
2022-10-01T00:04:48.809Z,10.00
2022-10-01T00:07:17.508Z,10.00
2022-10-01T00:09:45.585Z,9.90
2022-10-01T00:12:16.710Z,9.90
2022-10-01T00:14:45.095Z,10.00
2022-10-01T00:17:14.589Z,9.90
2022-10-01T00:19:42.648Z,10.00
2022-10-01T00:22:10.697Z,10.00
2022-10-01T00:24:38.721Z,9.90
2022-10-01T00:27:06.826Z,9.90
2022-10-01T00:29:35.751Z,9.90
2022-10-01T00:32:03.861Z,9.90
2022-10-01T00:34:33.327Z,9.90
2022-10-01T00:37:01.326Z,9.80
2022-10-01T00:42:03.701Z,9.90
2022-10-01T00:44:34.797Z,9.90
2022-10-01T00:47:10.714Z,9.80
2022-10-01T00:49:41.227Z,9.80
2022-10-01T00:52:17.017Z,9.80
2022-10-01T00:54:48.040Z,9.70
2022-10-01T00:57:19.832Z,9.80
2022-10-01T00:59:48.740Z,9.80
2022-10-01T01:02:16.817Z,9.90
2022-10-01T01:04:46.216Z,9.90
2022-10-01T01:07:14.553Z,9.90
2022-10-01T01:09:46.980Z,9.90
2022-10-01T01:12:26.504Z,10.00
2022-10-01T01:15:05.940Z,10.00
2022-10-01T01:17:41.059Z,10.00
2022-10-01T01:20:34.796Z,10.10
2022-10-01T01:23:14.371Z,10.10
2022-10-01T01:25:48.654Z,10.10
2022-10-01T01:28:25.330Z,10.10
2022-10-01T01:30:59.124Z,10.10
2022-10-01T01:33:31.282Z,10.10
2022-10-01T01:36:04.587Z,10.10
2022-10-01T01:38:37.866Z,10.00
2022-10-01T01:41:08.186Z,10.00
2022-10-01T01:43:40.785Z,9.90
2022-10-01T01:46:11.641Z,9.90
2022-10-01T01:48:42.038Z,9.90
2022-10-01T01:51:13.455Z,9.90
2022-10-01T01:53:42.265Z,9.90
2022-10-01T01:56:11.017Z,9.90
2022-10-01T01:58:40.966Z,10.00
2022-10-01T02:01:10.247Z,10.00
2022-10-01T02:03:38.263Z,10.00
2022-10-01T02:06:16.975Z,9.90
2022-10-01T02:08:52.291Z,9.90
2022-10-01T02:11:26.187Z,9.90
2022-10-01T02:14:08.050Z,9.90
2022-10-01T02:16:48.466Z,9.90
2022-10-01T02:19:24.516Z,9.90
2022-10-01T02:22:00.708Z,9.90
2022-10-01T02:24:36.086Z,9.90
2022-10-01T02:27:09.991Z,9.90
2022-10-01T02:29:40.656Z,9.80
2022-10-01T02:32:10.617Z,9.80
2022-10-01T02:34:40.120Z,9.70
2022-10-01T02:37:10.198Z,9.70
2022-10-01T02:39:42.397Z,9.70
2022-10-01T02:42:14.110Z,9.60
2022-10-01T02:44:45.710Z,9.60
2022-10-01T02:47:19.719Z,9.70
2022-10-01T02:49:49.231Z,9.60
2022-10-01T02:52:26.126Z,9.60
2022-10-01T02:54:58.577Z,9.60
2022-10-01T02:57:27.637Z,9.60
2022-10-01T03:00:00.209Z,9.60
2022-10-01T03:02:29.634Z,9.60
2022-10-01T03:04:58.283Z,9.60
2022-10-01T03:07:27.339Z,9.60
2022-10-01T03:09:55.612Z,9.60
2022-10-01T03:12:24.623Z,9.50
2022-10-01T03:14:54.117Z,9.60
2022-10-01T03:17:23.486Z,9.60
2022-10-01T03:19:51.526Z,9.50
2022-10-01T03:22:22.954Z,9.50
2022-10-01T03:24:51.050Z,9.70
2022-10-01T03:27:19.793Z,9.90
2022-10-01T03:29:48.578Z,10.00
2022-10-01T03:32:17.016Z,10.00
2022-10-01T03:34:46.791Z,10.20
2022-10-01T03:37:15.158Z,10.20
2022-10-01T03:39:43.463Z,10.30
2022-10-01T03:42:11.459Z,10.30
2022-10-01T03:44:39.487Z,10.30
2022-10-01T03:47:07.471Z,10.30
2022-10-01T03:49:35.529Z,10.30
2022-10-01T03:52:06.585Z,10.30
2022-10-01T03:54:35.055Z,10.30
2022-10-01T03:57:03.674Z,10.30
2022-10-01T03:59:31.985Z,10.30
2022-10-01T04:02:00.115Z,10.30
2022-10-01T04:04:29.454Z,10.30
2022-10-01T04:06:57.525Z,10.30
2022-10-01T04:09:27.323Z,10.30
2022-10-01T04:11:55.346Z,10.30
2022-10-01T04:14:23.328Z,10.30
2022-10-01T04:16:52.795Z,10.30
2022-10-01T04:19:21.135Z,10.30
2022-10-01T04:21:49.475Z,10.30
2022-10-01T04:24:17.470Z,10.30
2022-10-01T04:26:46.878Z,10.30
2022-10-01T04:29:14.948Z,10.30
2022-10-01T04:31:42.981Z,10.30
2022-10-01T04:34:11.298Z,10.30
2022-10-01T04:36:39.367Z,10.30
2022-10-01T04:39:08.235Z,10.30
2022-10-01T04:41:36.461Z,10.30
2022-10-01T04:44:06.659Z,10.30
2022-10-01T04:46:34.968Z,10.30
2022-10-01T04:49:03.022Z,10.30
2022-10-01T04:51:31.669Z,10.30
2022-10-01T04:53:59.824Z,10.30
2022-10-01T04:56:28.162Z,10.30
2022-10-01T04:58:56.138Z,10.40
2022-10-01T05:01:25.595Z,10.40
2022-10-01T05:03:54.201Z,10.40
2022-10-01T05:06:22.587Z,10.40
2022-10-01T05:08:50.609Z,10.50
2022-10-01T05:11:18.699Z,10.50
2022-10-01T05:13:46.769Z,10.50
2022-10-01T05:16:14.895Z,10.50
2022-10-01T05:18:44.624Z,10.50
2022-10-01T05:21:15.536Z,10.50
2022-10-01T05:23:43.519Z,10.50
2022-10-01T05:26:11.890Z,10.50
2022-10-01T05:28:43.290Z,10.50
2022-10-01T05:31:12.455Z,10.50
2022-10-01T05:33:41.364Z,10.50
2022-10-01T05:36:10.882Z,10.50
2022-10-01T05:38:39.280Z,10.50
2022-10-01T05:41:07.512Z,10.50
2022-10-01T05:43:36.328Z,10.50
2022-10-01T05:46:05.883Z,10.60
2022-10-01T05:48:36.888Z,10.60
2022-10-01T05:51:06.796Z,10.60
2022-10-01T05:53:37.995Z,10.50
2022-10-01T05:56:06.920Z,10.60
2022-10-01T05:58:35.187Z,10.50
2022-10-01T06:01:04.198Z,10.60
2022-10-01T06:03:32.471Z,10.60
2022-10-01T06:06:00.881Z,10.60
2022-10-01T06:08:28.893Z,10.60
2022-10-01T06:11:03.038Z,10.50
2022-10-01T06:13:32.086Z,10.50
2022-10-01T06:16:00.169Z,10.50
2022-10-01T06:18:28.766Z,10.50
2022-10-01T06:20:59.009Z,10.50
2022-10-01T06:23:27.481Z,10.40
2022-10-01T06:25:55.527Z,10.40
2022-10-01T06:28:25.033Z,10.40
2022-10-01T06:30:53.164Z,10.30
2022-10-01T06:33:21.647Z,10.30
2022-10-01T06:35:51.093Z,10.20
2022-10-01T06:38:20.959Z,10.20
2022-10-01T06:40:53.944Z,10.20
2022-10-01T06:43:22.166Z,10.20
2022-10-01T06:45:51.851Z,10.10
2022-10-01T06:48:20.836Z,10.10
2022-10-01T06:50:50.514Z,10.10
2022-10-01T06:53:19.101Z,10.10
2022-10-01T06:55:47.550Z,10.20
2022-10-01T06:58:17.857Z,10.20
2022-10-01T07:00:47.264Z,10.10
2022-10-01T07:03:18.832Z,10.20
2022-10-01T07:05:47.823Z,10.20
2022-10-01T07:08:16.174Z,10.10
2022-10-01T07:10:44.319Z,10.10
2022-10-01T07:13:14.354Z,10.10
2022-10-01T07:15:42.450Z,10.20
2022-10-01T07:18:10.900Z,10.30
2022-10-01T07:20:41.515Z,10.30
2022-10-01T07:23:12.769Z,10.30
2022-10-01T07:25:42.047Z,10.30
2022-10-01T07:28:17.008Z,10.20
2022-10-01T07:30:48.166Z,10.20
2022-10-01T07:33:18.998Z,10.10
2022-10-01T07:35:48.388Z,10.10
2022-10-01T07:38:16.736Z,10.10
2022-10-01T07:40:45.147Z,10.20
2022-10-01T07:43:14.650Z,10.20
2022-10-01T07:45:43.062Z,10.30
2022-10-01T07:48:11.165Z,10.20
2022-10-01T07:50:39.235Z,10.20
2022-10-01T07:53:08.617Z,10.20
2022-10-01T07:55:36.655Z,10.30
2022-10-01T07:58:05.558Z,10.30
2022-10-01T08:00:36.256Z,10.30
2022-10-01T08:03:04.741Z,10.40
2022-10-01T08:05:34.211Z,10.40
2022-10-01T08:08:03.869Z,10.40
2022-10-01T08:10:36.020Z,10.40
2022-10-01T08:13:08.818Z,10.40
2022-10-01T08:15:37.489Z,10.40
2022-10-01T08:18:05.655Z,10.40
2022-10-01T08:20:33.790Z,10.40
2022-10-01T08:23:05.621Z,10.50
2022-10-01T08:25:35.266Z,10.50
2022-10-01T08:28:03.589Z,10.50
2022-10-01T08:30:32.429Z,10.50
2022-10-01T08:33:02.144Z,10.50
2022-10-01T08:35:31.250Z,10.50
2022-10-01T08:38:03.087Z,10.60
2022-10-01T08:40:31.675Z,10.60
2022-10-01T08:43:06.366Z,10.70
2022-10-01T08:45:47.113Z,10.60
2022-10-01T08:48:22.239Z,10.70
2022-10-01T08:50:54.389Z,10.80
2022-10-01T08:53:37.580Z,10.80
2022-10-01T08:56:07.994Z,10.80
2022-10-01T08:58:47.566Z,10.80
2022-10-01T09:01:16.235Z,10.80
2022-10-01T09:03:44.368Z,10.80
2022-10-01T09:06:20.542Z,10.80
2022-10-01T09:09:08.863Z,10.80
2022-10-01T09:11:50.449Z,10.80
2022-10-01T09:14:41.272Z,10.90
2022-10-01T09:17:17.418Z,10.80
2022-10-01T09:20:02.679Z,10.90
2022-10-01T09:22:39.468Z,10.90
2022-10-01T09:25:18.260Z,10.90
2022-10-01T09:27:47.718Z,11.00
2022-10-01T09:30:21.477Z,11.10
2022-10-01T09:32:54.700Z,11.10
2022-10-01T09:35:35.098Z,11.10
2022-10-01T09:38:09.094Z,11.20
2022-10-01T09:40:42.776Z,11.20
2022-10-01T09:43:13.003Z,11.30
2022-10-01T09:45:42.796Z,11.30
2022-10-01T09:48:25.073Z,11.40
2022-10-01T09:50:58.314Z,11.30
2022-10-01T09:53:33.878Z,11.40
2022-10-01T09:56:06.322Z,11.40
2022-10-01T09:58:39.965Z,11.50
2022-10-01T10:01:19.113Z,11.50
2022-10-01T10:03:56.528Z,11.60
2022-10-01T10:06:29.409Z,11.70
2022-10-01T10:09:00.035Z,11.60
2022-10-01T10:11:31.431Z,11.70
2022-10-01T10:14:02.840Z,11.70
2022-10-01T10:16:35.940Z,11.70
2022-10-01T10:19:10.351Z,11.80
2022-10-01T10:21:38.970Z,11.80
2022-10-01T10:24:22.943Z,11.80
2022-10-01T10:26:56.721Z,11.90
2022-10-01T10:29:31.014Z,12.00
2022-10-01T10:32:04.041Z,12.00
2022-10-01T10:34:35.170Z,12.20
2022-10-01T10:37:07.536Z,12.40
2022-10-01T10:39:39.130Z,12.70
2022-10-01T10:42:08.574Z,12.90
2022-10-01T10:44:40.272Z,13.10
2022-10-01T10:47:14.565Z,13.30
2022-10-01T10:49:47.446Z,13.60
2022-10-01T10:52:25.288Z,13.70
2022-10-01T10:54:54.033Z,13.90
2022-10-01T10:57:27.902Z,14.00
2022-10-01T10:59:57.528Z,14.00
2022-10-01T11:02:30.058Z,13.90
2022-10-01T11:05:01.493Z,14.00
2022-10-01T11:07:30.398Z,14.00
2022-10-01T11:10:14.122Z,14.10
2022-10-01T11:12:57.350Z,14.10
2022-10-01T11:15:42.327Z,14.20
2022-10-01T11:18:38.759Z,14.50
2022-10-01T11:21:24.321Z,14.50
2022-10-01T11:24:16.042Z,14.40
2022-10-01T11:26:55.371Z,14.40
2022-10-01T11:29:35.592Z,14.50
2022-10-01T11:32:11.180Z,14.50
2022-10-01T11:35:12.375Z,14.50
2022-10-01T11:38:00.282Z,14.60
2022-10-01T11:40:34.299Z,14.60
2022-10-01T11:43:10.429Z,14.50
2022-10-01T11:45:44.442Z,14.40
2022-10-01T11:48:18.747Z,14.40
2022-10-01T11:50:50.231Z,14.40
2022-10-01T11:53:23.801Z,14.40
2022-10-01T11:56:16.378Z,14.40
2022-10-01T11:58:54.795Z,14.40
2022-10-01T12:01:39.011Z,14.40
2022-10-01T12:04:18.729Z,14.50
2022-10-01T12:06:55.321Z,14.60
2022-10-01T12:09:30.838Z,14.30
2022-10-01T12:12:03.677Z,14.40
2022-10-01T12:14:39.314Z,14.40
2022-10-01T12:17:14.326Z,14.40
2022-10-01T12:19:46.521Z,14.40
2022-10-01T12:22:24.366Z,14.70
2022-10-01T12:24:54.209Z,14.70
2022-10-01T12:27:42.740Z,14.90
2022-10-01T12:30:13.820Z,14.90
2022-10-01T12:33:17.707Z,15.10
2022-10-01T12:35:58.251Z,15.10
2022-10-01T12:38:47.228Z,15.10
2022-10-01T12:41:32.479Z,15.10
2022-10-01T12:44:24.141Z,15.00
2022-10-01T12:47:05.789Z,14.90
2022-10-01T12:49:40.072Z,15.00
2022-10-01T12:52:16.350Z,15.00
2022-10-01T12:55:12.623Z,15.00
2022-10-01T12:57:49.219Z,15.00
2022-10-01T13:00:20.317Z,15.00
2022-10-01T13:03:18.726Z,15.10
2022-10-01T13:05:59.301Z,15.00
2022-10-01T13:08:43.972Z,15.00
2022-10-01T13:11:26.067Z,14.90
2022-10-01T13:13:56.175Z,15.10
2022-10-01T13:16:31.451Z,15.30
2022-10-01T13:19:05.506Z,15.30
2022-10-01T13:21:47.453Z,15.40
2022-10-01T13:24:21.359Z,15.40
2022-10-01T13:26:56.405Z,15.60
2022-10-01T13:29:35.894Z,15.60
2022-10-01T13:32:05.473Z,15.80
2022-10-01T13:34:38.419Z,15.90
2022-10-01T13:37:18.269Z,16.10
2022-10-01T13:39:47.399Z,16.10
2022-10-01T13:42:24.667Z,16.10
2022-10-01T13:44:56.477Z,16.20
2022-10-01T13:47:26.313Z,16.30
2022-10-01T13:50:00.528Z,16.40
2022-10-01T13:52:28.803Z,16.50
2022-10-01T13:54:58.082Z,16.50
2022-10-01T13:57:35.327Z,16.40
2022-10-01T14:00:22.411Z,16.30
2022-10-01T14:03:04.040Z,16.40
2022-10-01T14:05:37.591Z,16.60
2022-10-01T14:08:13.431Z,16.90
2022-10-01T14:11:05.942Z,16.80
2022-10-01T14:14:01.022Z,16.90
2022-10-01T14:16:30.163Z,16.90
2022-10-01T14:18:58.214Z,17.00
2022-10-01T14:21:45.697Z,17.20
2022-10-01T14:24:24.966Z,16.90
2022-10-01T14:26:55.971Z,17.10
2022-10-01T14:29:39.793Z,17.00
2022-10-01T14:32:20.934Z,17.10
2022-10-01T14:35:00.099Z,16.90
2022-10-01T14:37:30.038Z,16.60
2022-10-01T14:40:08.987Z,16.30
2022-10-01T14:42:37.402Z,16.50
2022-10-01T14:45:18.058Z,16.50
2022-10-01T14:47:48.866Z,16.60
2022-10-01T14:50:23.371Z,16.60
2022-10-01T14:52:54.923Z,16.40
2022-10-01T14:55:25.030Z,16.20
2022-10-01T14:57:56.155Z,16.30
2022-10-01T15:00:27.964Z,16.20
2022-10-01T15:03:04.949Z,16.00
2022-10-01T15:05:35.677Z,16.10
2022-10-01T15:08:13.378Z,16.10
2022-10-01T15:10:46.388Z,16.10
2022-10-01T15:13:22.055Z,16.00
2022-10-01T15:15:51.821Z,16.10
2022-10-01T15:18:21.054Z,16.10
2022-10-01T15:20:58.094Z,15.70
2022-10-01T15:23:28.844Z,14.90
2022-10-01T15:25:59.749Z,14.30
2022-10-01T15:28:31.982Z,14.20
2022-10-01T15:31:03.655Z,14.00
2022-10-01T15:33:34.906Z,14.10
2022-10-01T15:36:06.443Z,13.80
2022-10-01T15:38:35.325Z,13.50
2022-10-01T15:41:30.638Z,13.60
2022-10-01T15:43:56.031Z,13.50
2022-10-01T15:46:33.283Z,13.40
2022-10-01T15:49:21.255Z,13.40
2022-10-01T15:52:07.728Z,13.50
2022-10-01T15:54:36.614Z,13.40
2022-10-01T15:57:06.188Z,13.30
2022-10-01T15:59:35.678Z,13.20
2022-10-01T16:02:10.700Z,13.10
2022-10-01T16:04:39.288Z,13.00
2022-10-01T16:07:07.310Z,13.10
2022-10-01T16:09:35.711Z,13.10
2022-10-01T16:12:07.233Z,13.10
2022-10-01T16:14:39.557Z,13.10
2022-10-01T16:17:29.544Z,13.00
2022-10-01T16:20:00.268Z,13.00
2022-10-01T16:22:31.795Z,12.90
2022-10-01T16:25:01.410Z,13.00
2022-10-01T16:27:32.726Z,12.90
2022-10-01T16:30:05.678Z,13.00
2022-10-01T16:32:36.077Z,12.80
2022-10-01T16:35:20.343Z,12.80
2022-10-01T16:37:50.444Z,12.60
2022-10-01T16:40:19.515Z,12.60
2022-10-01T16:42:49.428Z,12.50
2022-10-01T16:45:20.480Z,12.50
2022-10-01T16:47:49.902Z,12.40
2022-10-01T16:50:22.642Z,12.30
2022-10-01T16:52:54.128Z,12.20
2022-10-01T16:55:24.878Z,12.20
2022-10-01T16:57:54.846Z,12.10
2022-10-01T17:00:25.231Z,12.10
2022-10-01T17:02:54.897Z,12.20
2022-10-01T17:05:26.583Z,12.20
2022-10-01T17:07:57.679Z,12.10
2022-10-01T17:10:25.886Z,12.00
2022-10-01T17:12:55.635Z,12.00
2022-10-01T17:15:27.047Z,11.90
2022-10-01T17:17:57.839Z,11.80
2022-10-01T17:20:28.599Z,11.90
2022-10-01T17:22:57.983Z,11.80
2022-10-01T17:25:31.019Z,11.80
2022-10-01T17:27:59.769Z,11.80
2022-10-01T17:30:29.395Z,11.80
2022-10-01T17:32:59.941Z,11.80
2022-10-01T17:35:28.938Z,11.70
2022-10-01T17:37:57.327Z,11.70
2022-10-01T17:40:25.591Z,11.70
2022-10-01T17:42:53.618Z,11.80
2022-10-01T17:45:21.715Z,11.90
2022-10-01T17:47:51.451Z,11.90
2022-10-01T17:50:20.977Z,11.90
2022-10-01T17:52:49.478Z,11.90
2022-10-01T17:55:19.833Z,11.90
2022-10-01T17:57:47.915Z,11.90
2022-10-01T18:00:16.030Z,12.00
2022-10-01T18:02:44.416Z,12.00
2022-10-01T18:05:14.854Z,12.00
2022-10-01T18:07:45.038Z,12.00
2022-10-01T18:10:14.466Z,11.90
2022-10-01T18:12:42.671Z,11.90
2022-10-01T18:15:11.001Z,11.90
2022-10-01T18:17:43.473Z,11.90
2022-10-01T18:20:19.798Z,11.90
2022-10-01T18:22:49.334Z,11.80
2022-10-01T18:25:19.311Z,11.80
2022-10-01T18:27:50.076Z,11.80
2022-10-01T18:30:18.840Z,11.80
2022-10-01T18:32:50.621Z,11.70
2022-10-01T18:35:26.502Z,11.70
2022-10-01T18:37:59.045Z,11.70
2022-10-01T18:40:30.044Z,11.60
2022-10-01T18:43:03.308Z,11.70
2022-10-01T18:45:56.870Z,11.60
2022-10-01T18:48:47.427Z,11.60
2022-10-01T18:51:24.908Z,11.60
2022-10-01T18:54:04.970Z,11.60
2022-10-01T18:56:35.169Z,11.60
2022-10-01T18:59:29.174Z,11.50
2022-10-01T19:02:33.424Z,11.40
2022-10-01T19:05:26.813Z,11.50
2022-10-01T19:08:04.745Z,11.50
2022-10-01T19:10:38.605Z,11.50
2022-10-01T19:13:16.088Z,11.50
2022-10-01T19:15:57.324Z,11.50
2022-10-01T19:18:43.612Z,11.50
2022-10-01T19:21:24.031Z,11.40
2022-10-01T19:24:22.526Z,11.50
2022-10-01T19:26:59.021Z,11.50
2022-10-01T19:29:40.230Z,11.50
2022-10-01T19:32:12.161Z,11.50
2022-10-01T19:34:45.506Z,11.50
2022-10-01T19:37:20.301Z,11.50
2022-10-01T19:39:51.513Z,11.50
2022-10-01T19:42:24.562Z,11.50
2022-10-01T19:44:59.619Z,11.50
2022-10-01T19:47:37.589Z,11.40
2022-10-01T19:50:18.188Z,11.40
2022-10-01T19:52:50.831Z,11.40
2022-10-01T19:55:22.753Z,11.40
2022-10-01T19:57:53.040Z,11.40
2022-10-01T20:00:23.402Z,11.40
2022-10-01T20:02:58.247Z,11.40
2022-10-01T20:05:30.224Z,11.40
2022-10-01T20:08:04.221Z,11.40
2022-10-01T20:10:39.367Z,11.30
2022-10-01T20:13:29.082Z,11.30
2022-10-01T20:16:04.754Z,11.30
2022-10-01T20:18:41.115Z,11.30
2022-10-01T20:21:22.954Z,11.30
2022-10-01T20:23:58.100Z,11.30
2022-10-01T20:26:36.857Z,11.20
2022-10-01T20:29:17.181Z,11.20
2022-10-01T20:31:52.462Z,11.20
2022-10-01T20:34:28.600Z,11.20
2022-10-01T20:37:09.974Z,11.20
2022-10-01T20:39:42.944Z,11.20
2022-10-01T20:42:16.928Z,11.20
2022-10-01T20:44:46.526Z,11.20
2022-10-01T20:47:22.998Z,11.20
2022-10-01T20:49:57.247Z,11.30
2022-10-01T20:52:32.349Z,11.20
2022-10-01T20:55:04.833Z,11.20
2022-10-01T20:57:35.577Z,11.20
2022-10-01T21:00:09.291Z,11.20
2022-10-01T21:02:43.533Z,11.10
2022-10-01T21:05:18.920Z,11.20
2022-10-01T21:07:55.543Z,11.20
2022-10-01T21:10:27.742Z,11.20
2022-10-01T21:13:02.138Z,11.10
2022-10-01T21:15:42.440Z,11.10
2022-10-01T21:18:17.570Z,11.20
2022-10-01T21:21:03.254Z,11.10
2022-10-01T21:23:40.835Z,11.10
2022-10-01T21:26:19.249Z,11.00
2022-10-01T21:29:16.084Z,11.10
2022-10-01T21:31:55.227Z,11.00
2022-10-01T21:34:33.427Z,11.10
2022-10-01T21:37:06.133Z,11.10
2022-10-01T21:39:40.879Z,11.00
2022-10-01T21:42:15.675Z,11.00
2022-10-01T21:45:05.571Z,11.00
2022-10-01T21:47:46.249Z,11.10
2022-10-01T21:50:23.366Z,11.00
2022-10-01T21:53:16.730Z,11.00
2022-10-01T21:56:04.094Z,11.00
2022-10-01T21:58:44.239Z,11.00
2022-10-01T22:01:25.079Z,11.00
2022-10-01T22:04:03.519Z,11.00
2022-10-01T22:06:36.923Z,11.00
2022-10-01T22:09:12.890Z,11.00
2022-10-01T22:11:46.911Z,11.00
2022-10-01T22:14:17.590Z,11.00
2022-10-01T22:16:52.273Z,11.00
2022-10-01T22:19:28.559Z,11.00
2022-10-01T22:22:04.282Z,11.00
2022-10-01T22:24:37.429Z,11.00
2022-10-01T22:27:12.361Z,11.00
2022-10-01T22:29:45.508Z,10.90
2022-10-01T22:32:17.257Z,11.00
2022-10-01T22:34:54.342Z,10.90
2022-10-01T22:37:27.719Z,10.90
2022-10-01T22:40:02.259Z,11.00
2022-10-01T22:42:35.492Z,10.90
2022-10-01T22:45:13.035Z,10.90
2022-10-01T22:47:59.033Z,10.90
2022-10-01T22:50:38.181Z,11.00
2022-10-01T22:53:20.619Z,10.90
2022-10-01T22:55:54.417Z,11.00
2022-10-01T22:58:39.581Z,11.00
2022-10-01T23:01:16.291Z,11.00
2022-10-01T23:04:06.174Z,10.90
2022-10-01T23:06:42.158Z,10.90
2022-10-01T23:09:16.564Z,10.90
2022-10-01T23:11:53.343Z,10.90
2022-10-01T23:14:39.155Z,10.90
2022-10-01T23:17:13.622Z,10.90
2022-10-01T23:19:54.339Z,10.80
2022-10-01T23:22:39.971Z,10.90
2022-10-01T23:25:17.848Z,10.90
2022-10-01T23:28:01.525Z,10.90
2022-10-01T23:30:37.902Z,10.90
2022-10-01T23:33:25.776Z,10.90
2022-10-01T23:36:04.579Z,10.90
2022-10-01T23:38:52.766Z,10.90
2022-10-01T23:41:26.434Z,10.90
2022-10-01T23:44:08.989Z,10.90
2022-10-01T23:46:40.761Z,10.90
2022-10-01T23:49:15.194Z,10.90
2022-10-01T23:51:48.975Z,10.90
2022-10-01T23:54:25.419Z,10.80
2022-10-01T23:56:57.336Z,10.90
2022-10-01T23:59:29.454Z,10.90
